Time;durP1;ratioP1;P1;durP2;ratioP2;P2;SDS_P1;SDS_P2;PMS_P1;PMS_P2;Temp;Humidity;BMP_temperature;BMP_pressure;BME280_temperature;BME280_humidity;BME280_pressure;Samples;Min_cycle;Max_cycle;Signal;HPM_P1;HPM_P2
2022/11/27 00:00:34;;;;;;;7.83;5.60;;;;;;;;;;4985342;28;20479;-69
2022/11/27 00:03:02;;;;;;;8.77;6.13;;;;;;;;;;4983371;28;20806;-69
2022/11/27 00:05:29;;;;;;;7.30;4.90;;;;;;;;;;4981928;28;20526;-69
2022/11/27 00:07:57;;;;;;;7.97;4.80;;;;;;;;;;4971080;28;20455;-69
2022/11/27 00:10:24;;;;;;;8.57;5.00;;;;;;;;;;4986266;28;20459;-69
2022/11/27 00:12:51;;;;;;;8.73;5.90;;;;;;;;;;4978600;28;20453;-69
2022/11/27 00:15:19;;;;;;;7.43;4.57;;;;;;;;;;4985277;28;20467;-69
2022/11/27 00:17:46;;;;;;;4.97;4.47;;;;;;;;;;4978212;28;21265;-69
2022/11/27 00:20:13;;;;;;;4.57;3.77;;;;;;;;;;4986945;28;20563;-69
2022/11/27 00:22:41;;;;;;;7.90;5.40;;;;;;;;;;4987428;28;20791;-68
2022/11/27 00:25:09;;;;;;;6.40;5.27;;;;;;;;;;4984413;28;20454;-69
2022/11/27 00:27:37;;;;;;;10.90;4.40;;;;;;;;;;4978530;28;20469;-68
2022/11/27 00:30:04;;;;;;;9.90;3.93;;;;;;;;;;4978744;28;20949;-68
2022/11/27 00:32:31;;;;;;;9.53;5.23;;;;;;;;;;4972247;28;20973;-70
2022/11/27 00:34:58;;;;;;;7.80;5.53;;;;;;;;;;4972981;28;20451;-70
2022/11/27 00:37:25;;;;;;;14.40;4.10;;;;;;;;;;4974507;28;20956;-69
2022/11/27 00:39:52;;;;;;;8.33;4.70;;;;;;;;;;4972713;28;20470;-70
2022/11/27 00:42:21;;;;;;;9.30;5.33;;;;;;;;;;4976906;28;20470;-69
2022/11/27 00:44:48;;;;;;;6.03;4.80;;;;;;;;;;4984154;28;20969;-69
2022/11/27 00:47:15;;;;;;;6.60;3.90;;;;;;;;;;4977274;28;20519;-69
2022/11/27 00:49:42;;;;;;;10.10;5.47;;;3.00;99.90;;;;;;4975602;28;20463;-67
2022/11/27 00:52:09;;;;;;;6.93;5.43;;;3.30;99.90;;;;;;4986153;28;20459;-71
2022/11/27 00:54:36;;;;;;;18.03;5.47;;;3.20;99.90;;;;;;4988149;28;20455;-71
2022/11/27 00:57:03;;;;;;;8.90;4.70;;;3.40;99.90;;;;;;4981544;28;20457;-70
2022/11/27 00:59:32;;;;;;;10.17;6.90;;;3.40;99.90;;;;;;4988628;28;20518;-71
2022/11/27 01:01:58;;;;;;;6.77;4.47;;;3.40;99.90;;;;;;4987734;28;20473;-70
2022/11/27 01:04:27;;;;;;;12.20;5.33;;;;;;;;;;4995539;28;20535;-72
2022/11/27 01:06:54;;;;;;;9.20;5.33;;;;;;;;;;4981426;28;20931;-71
2022/11/27 01:09:21;;;;;;;7.07;4.67;;;;;;;;;;4988919;28;20466;-71
2022/11/27 01:11:48;;;;;;;5.93;5.07;;;;;;;;;;4980952;28;20461;-72
2022/11/27 01:14:16;;;;;;;10.87;4.90;;;;;;;;;;4988936;28;20452;-70
2022/11/27 01:16:45;;;;;;;6.60;4.20;;;;;;;;;;4990354;28;20450;-72
2022/11/27 01:19:12;;;;;;;7.40;4.97;;;;;;;;;;4985092;28;20489;-70
2022/11/27 01:21:40;;;;;;;5.03;4.50;;;;;;;;;;4979457;28;20963;-70
2022/11/27 01:24:07;;;;;;;5.50;4.23;;;;;;;;;;4982789;28;20454;-72
2022/11/27 01:26:34;;;;;;;5.87;3.93;;;;;;;;;;4980021;28;20465;-71
2022/11/27 01:29:02;;;;;;;8.67;5.33;;;;;;;;;;4983642;28;20544;-71
2022/11/27 01:31:30;;;;;;;24.63;6.17;;;;;;;;;;4986510;28;20458;-70
2022/11/27 01:34:00;;;;;;;4.90;4.30;;;;;;;;;;4990635;28;20460;-72
2022/11/27 01:36:27;;;;;;;6.23;4.20;;;;;;;;;;4987689;28;20449;-71
2022/11/27 01:38:54;;;;;;;6.83;3.80;;;;;;;;;;4992241;28;20487;-71
2022/11/27 01:41:22;;;;;;;6.40;4.50;;;;;;;;;;4996997;28;20461;-71
2022/11/27 01:43:51;;;;;;;9.50;5.07;;;;;;;;;;4991475;28;20972;-71
2022/11/27 01:46:29;;;;;;;5.80;4.50;;;;;;;;;;4981120;28;20453;-71
2022/11/27 01:49:00;;;;;;;6.37;4.73;;;;;;;;;;4991055;28;20452;-71
2022/11/27 01:51:27;;;;;;;4.83;4.30;;;;;;;;;;4976078;28;20452;-71
2022/11/27 01:53:54;;;;;;;4.60;3.57;;;;;;;;;;4987351;28;20447;-71
2022/11/27 01:56:23;;;;;;;7.37;4.53;;;;;;;;;;4987986;28;20450;-71
2022/11/27 01:58:50;;;;;;;9.27;5.20;;;;;;;;;;4974390;28;20496;-70
2022/11/27 02:01:17;;;;;;;4.90;3.37;;;;;;;;;;4993895;28;20882;-71
2022/11/27 02:03:44;;;;;;;9.17;4.27;;;;;;;;;;4992605;28;20451;-71
2022/11/27 02:06:14;;;;;;;9.33;4.83;;;;;;;;;;4974359;28;20456;-70
2022/11/27 02:08:42;;;;;;;5.80;4.23;;;;;;;;;;4980958;28;20475;-68
2022/11/27 02:11:13;;;;;;;5.30;3.80;;;;;;;;;;4979307;28;20455;-70
2022/11/27 02:13:44;;;;;;;4.43;4.03;;;;;;;;;;4987945;28;20802;-69
2022/11/27 02:16:16;;;;;;;4.87;3.30;;;;;;;;;;4974463;28;20895;-70
2022/11/27 02:18:48;;;;;;;4.60;4.10;;;;;;;;;;4986943;28;20474;-68
2022/11/27 02:21:24;;;;;;;5.13;4.17;;;3.40;99.90;;;;;;4974046;28;20447;-70
2022/11/27 02:24:16;;;;;;;8.90;4.63;;;2.10;99.90;;;;;;4986498;28;20454;-70
2022/11/27 02:27:15;;;;;;;5.63;4.50;;;2.00;99.90;;;;;;4976764;28;20458;-68
2022/11/27 02:29:47;;;;;;;8.90;3.67;;;2.00;99.90;;;;;;4979270;28;20462;-68
2022/11/27 02:32:21;;;;;;;8.97;3.93;;;1.90;99.90;;;;;;4981781;28;20958;-70
2022/11/27 02:34:52;;;;;;;5.33;4.80;;;1.80;99.90;;;;;;4976872;28;20542;-70
2022/11/27 02:37:31;;;;;;;4.43;3.40;;;1.70;99.90;;;;;;4983883;28;20458;-70
2022/11/27 02:40:04;;;;;;;7.80;5.60;;;1.60;99.90;;;;;;4978470;28;20828;-70
2022/11/27 02:42:35;;;;;;;5.23;3.60;;;1.60;99.90;;;;;;4981421;28;20485;-69
2022/11/27 02:45:07;;;;;;;3.23;2.93;;;1.80;99.90;;;;;;4980269;28;20592;-70
2022/11/27 02:47:35;;;;;;;4.83;2.83;;;1.90;99.90;;;;;;4979096;28;20946;-70
2022/11/27 02:50:03;;;;;;;4.93;3.50;;;2.10;99.90;;;;;;4980997;28;20454;-70
2022/11/27 02:52:32;;;;;;;3.40;2.83;;;1.90;99.90;;;;;;4978251;28;21339;-70
2022/11/27 02:55:02;;;;;;;4.83;4.20;;;1.70;99.90;;;;;;4981875;28;20453;-70
2022/11/27 02:57:31;;;;;;;6.53;4.30;;;1.60;99.90;;;;;;4977877;28;20525;-70
2022/11/27 02:59:59;;;;;;;4.47;3.37;;;1.70;99.90;;;;;;4982375;28;20504;-70
2022/11/27 03:02:30;;;;;;;7.43;3.60;;;;;;;;;;4992431;28;20476;-70
2022/11/27 03:04:59;;;;;;;6.73;3.80;;;;;;;;;;4981844;28;20449;-70
2022/11/27 03:07:30;;;;;;;6.60;4.33;;;;;;;;;;4978209;28;20489;-70
2022/11/27 03:09:59;;;;;;;5.40;3.70;;;;;;;;;;4977835;28;20461;-70
2022/11/27 03:12:26;;;;;;;3.70;2.80;;;;;;;;;;4979340;28;20457;-70
2022/11/27 03:14:53;;;;;;;4.67;3.23;;;;;;;;;;4979460;28;20464;-70
2022/11/27 03:17:27;;;;;;;4.87;3.07;;;;;;;;;;4972232;28;20458;-70
2022/11/27 03:19:58;;;;;;;6.00;3.37;;;;;;;;;;4983018;28;20469;-68
2022/11/27 03:22:26;;;;;;;7.57;4.30;;;;;;;;;;4979905;28;20472;-69
2022/11/27 03:24:54;;;;;;;7.23;4.10;;;;;;;;;;4984680;28;20460;-68
2022/11/27 03:27:24;;;;;;;4.47;3.10;;;;;;;;;;4985589;28;20469;-69
2022/11/27 03:29:53;;;;;;;5.17;3.70;;;;;;;;;;4985606;28;20471;-68
2022/11/27 03:32:20;;;;;;;5.43;3.90;;;;;;;;;;4982581;28;20816;-72
2022/11/27 03:34:47;;;;;;;4.07;2.67;;;;;;;;;;4988970;28;20468;-70
2022/11/27 03:37:16;;;;;;;3.97;2.80;;;;;;;;;;4973276;28;20457;-71
2022/11/27 03:39:43;;;;;;;3.33;2.30;;;;;;;;;;4982817;28;20493;-70
2022/11/27 03:42:15;;;;;;;3.93;3.20;;;;;;;;;;4991568;28;20445;-71
2022/11/27 03:44:43;;;;;;;6.03;3.30;;;;;;;;;;4989802;28;20512;-70
2022/11/27 03:47:13;;;;;;;5.47;3.73;;;;;;;;;;4981778;28;20454;-70
2022/11/27 03:49:48;;;;;;;6.00;4.30;;;;;;;;;;4977701;28;20457;-68
2022/11/27 03:52:21;;;;;;;3.50;2.83;;;;;;;;;;4972634;28;20803;-71
2022/11/27 03:54:53;;;;;;;3.13;2.57;;;;;;;;;;4979392;28;20448;-71
2022/11/27 03:57:22;;;;;;;4.97;3.80;;;;;;;;;;4977804;28;20462;-70
2022/11/27 03:59:50;;;;;;;3.57;2.30;;;;;;;;;;4980306;28;20531;-69
2022/11/27 04:02:28;;;;;;;5.40;3.53;;;;;;;;;;4989015;28;21008;-71
2022/11/27 04:04:55;;;;;;;8.93;3.73;;;;;;;;;;4972230;28;20442;-72
2022/11/27 04:07:23;;;;;;;3.80;3.07;;;;;;;;;;4985490;28;20472;-72
2022/11/27 04:09:50;;;;;;;7.10;3.13;;;;;;;;;;4980098;28;20961;-72
2022/11/27 04:12:17;;;;;;;3.77;2.47;;;;;;;;;;4978642;28;20446;-72
2022/11/27 04:14:44;;;;;;;4.37;3.20;;;;;;;;;;4979717;28;20457;-69
2022/11/27 04:17:12;;;;;;;4.27;3.10;;;;;;;;;;4977148;28;20459;-70
2022/11/27 04:19:39;;;;;;;12.20;3.67;;;;;;;;;;4979962;28;20507;-70
2022/11/27 04:22:06;;;;;;;6.67;3.87;;;;;;;;;;4975932;28;20940;-70
2022/11/27 04:24:34;;;;;;;3.67;3.00;;;;;;;;;;4979480;28;20457;-70
2022/11/27 04:27:01;;;;;;;9.07;4.57;;;;;;;;;;4976662;28;21040;-70
2022/11/27 04:29:28;;;;;;;4.80;3.37;;;;;;;;;;4979425;28;20460;-70
2022/11/27 04:31:56;;;;;;;4.23;3.23;;;;;;;;;;4976476;28;20941;-70
2022/11/27 04:34:23;;;;;;;3.27;2.97;;;;;;;;;;4978811;28;20457;-71
2022/11/27 04:36:50;;;;;;;3.70;3.10;;;;;;;;;;4977940;28;20453;-70
2022/11/27 04:39:17;;;;;;;4.30;3.40;;;;;;;;;;4973791;28;20481;-70
2022/11/27 04:41:45;;;;;;;4.73;3.50;;;;;;;;;;4983776;28;20493;-68
2022/11/27 04:44:13;;;;;;;3.37;3.07;;;;;;;;;;4984875;28;20461;-70
2022/11/27 04:46:40;;;;;;;6.00;2.57;;;;;;;;;;4972046;28;20455;-71
2022/11/27 04:49:07;;;;;;;6.27;4.03;;;;;;;;;;4984935;28;20457;-70
2022/11/27 04:51:34;;;;;;;3.27;2.87;;;;;;;;;;4971812;28;20775;-71
2022/11/27 04:54:01;;;;;;;3.67;3.33;;;;;;;;;;4983868;28;20464;-70
2022/11/27 04:56:29;;;;;;;4.80;3.70;;;;;;;;;;4978831;28;20953;-70
2022/11/27 04:58:57;;;;;;;6.23;3.77;;;;;;;;;;4986928;28;20460;-71
2022/11/27 05:01:24;;;;;;;3.37;3.07;;;;;;;;;;4989918;28;20453;-70
2022/11/27 05:03:51;;;;;;;5.63;3.83;;;;;;;;;;4975279;28;20835;-73
2022/11/27 05:06:21;;;;;;;5.00;3.50;;;;;;;;;;4975923;28;20459;-71
2022/11/27 05:08:48;;;;;;;3.80;2.47;;;;;;;;;;4979387;28;20839;-72
2022/11/27 05:11:17;;;;;;;4.33;2.97;;;;;;;;;;4981272;28;20447;-73
2022/11/27 05:13:44;;;;;;;4.33;2.93;;;;;;;;;;4983812;28;20470;-69
2022/11/27 05:16:12;;;;;;;8.30;3.63;;;;;;;;;;4982362;28;20466;-71
2022/11/27 05:18:39;;;;;;;2.73;2.50;;;;;;;;;;4985932;28;20458;-72
2022/11/27 05:21:07;;;;;;;4.13;2.57;;;;;;;;;;4989201;28;20520;-72
2022/11/27 05:23:35;;;;;;;3.13;2.80;;;;;;;;;;4975887;28;20462;-72
2022/11/27 05:26:02;;;;;;;2.50;2.30;;;;;;;;;;4970540;28;21093;-71
2022/11/27 05:28:29;;;;;;;2.73;2.13;;;;;;;;;;4988589;28;20455;-70
2022/11/27 05:30:56;;;;;;;5.23;4.07;;;;;;;;;;4989502;28;20466;-71
2022/11/27 05:33:25;;;;;;;6.43;3.37;;;;;;;;;;4990218;28;20945;-71
2022/11/27 05:35:52;;;;;;;5.00;2.87;;;;;;;;;;4984081;28;20459;-71
2022/11/27 05:38:19;;;;;;;3.40;2.67;;;;;;;;;;4988573;28;20453;-72
2022/11/27 05:40:46;;;;;;;4.10;2.23;;;;;;;;;;4990325;28;20493;-71
2022/11/27 05:43:13;;;;;;;2.47;1.70;;;;;;;;;;4993509;28;20945;-72
2022/11/27 05:45:41;;;;;;;4.87;3.47;;;;;;;;;;4983932;28;20454;-68
2022/11/27 05:48:08;;;;;;;3.93;3.00;;;;;;;;;;4981861;28;20454;-71
2022/11/27 05:50:36;;;;;;;4.80;3.40;;;;;;;;;;4981262;28;20454;-71
2022/11/27 05:53:03;;;;;;;4.33;3.20;;;;;;;;;;4990449;28;20453;-70
2022/11/27 05:55:30;;;;;;;4.83;2.80;;;;;;;;;;4993690;28;20460;-71
2022/11/27 05:57:58;;;;;;;2.90;1.80;;;;;;;;;;4989760;28;20459;-71
2022/11/27 06:00:25;;;;;;;4.20;2.87;;;;;;;;;;4986272;28;20492;-72
2022/11/27 06:02:53;;;;;;;6.00;3.43;;;1.60;99.90;;;;;;4986783;28;20547;-71
2022/11/27 06:05:19;;;;;;;3.03;2.30;;;1.90;99.90;;;;;;4987483;28;20459;-72
2022/11/27 06:07:47;;;;;;;3.23;2.43;;;1.80;99.90;;;;;;4985676;28;20455;-71
2022/11/27 06:10:14;;;;;;;2.87;1.63;;;1.60;99.90;;;;;;4988908;28;20477;-72
2022/11/27 06:12:41;;;;;;;3.10;2.87;;;1.50;99.90;;;;;;4981734;28;20479;-69
2022/11/27 06:15:08;;;;;;;5.43;2.10;;;1.40;99.90;;;;;;4987296;28;20946;-72
2022/11/27 06:17:35;;;;;;;2.47;1.70;;;1.60;99.90;;;;;;4990569;28;20461;-71
2022/11/27 06:20:02;;;;;;;3.93;2.80;;;1.90;99.90;;;;;;4978035;28;20490;-71
2022/11/27 06:22:30;;;;;;;2.93;1.93;;;1.90;99.90;;;;;;4987983;28;20446;-71
2022/11/27 06:24:58;;;;;;;4.40;2.70;;;1.60;99.90;;;;;;4987688;28;20453;-71
2022/11/27 06:27:25;;;;;;;4.03;2.30;;;1.50;99.90;;;;;;4992131;28;20449;-72
2022/11/27 06:29:51;;;;;;;2.80;2.00;;;1.50;99.90;;;;;;4991762;28;20547;-71
2022/11/27 06:32:18;;;;;;;4.80;2.60;;;1.50;99.90;;;;;;4989046;28;20479;-71
2022/11/27 06:34:45;;;;;;;2.57;2.30;;;1.60;99.90;;;;;;4990570;28;20454;-72
2022/11/27 06:37:12;;;;;;;2.80;2.17;;;1.70;99.90;;;;;;4991940;28;20453;-71
2022/11/27 06:39:39;;;;;;;4.10;3.27;;;1.60;99.90;;;;;;4985261;28;20509;-71
2022/11/27 06:42:07;;;;;;;2.63;2.07;;;1.40;99.90;;;;;;4994358;28;20532;-72
2022/11/27 06:44:34;;;;;;;3.13;2.30;;;1.30;99.90;;;;;;4989506;28;20450;-71
2022/11/27 06:47:01;;;;;;;6.67;3.27;;;1.70;99.90;;;;;;4993144;28;20468;-71
2022/11/27 06:49:27;;;;;;;2.13;1.90;;;2.00;99.90;;;;;;4997313;28;20455;-73
2022/11/27 06:51:54;;;;;;;2.77;2.53;;;2.00;99.90;;;;;;4999423;28;20451;-71
2022/11/27 06:54:21;;;;;;;5.53;2.53;;;1.90;99.10;;;;;;4999136;28;20465;-72
2022/11/27 06:56:50;;;;;;;2.50;2.10;;;1.70;99.90;;;;;;5000988;28;20533;-72
2022/11/27 06:59:19;;;;;;;3.53;2.50;;;1.40;99.90;;;;;;4998220;28;20453;-72
2022/11/27 07:01:46;;;;;;;3.20;1.90;;;1.60;99.90;;;;;;5002541;28;20549;-72
2022/11/27 07:04:15;;;;;;;5.47;2.20;;;1.50;99.90;;;;;;4988414;28;20460;-71
2022/11/27 07:06:43;;;;;;;2.73;2.50;;;1.30;99.90;;;;;;4996410;28;20454;-69
2022/11/27 07:09:10;;;;;;;6.37;3.03;;;1.40;99.90;;;;;;4985132;28;20462;-71
2022/11/27 07:11:38;;;;;;;2.97;2.47;;;1.50;99.90;;;;;;4986751;28;20458;-72
2022/11/27 07:14:06;;;;;;;2.57;2.37;;;1.80;99.90;;;;;;4980075;28;20464;-70
2022/11/27 07:16:35;;;;;;;4.40;2.83;;;;;;;;;;4981974;28;20450;-72
2022/11/27 07:19:03;;;;;;;5.37;2.77;;;;;;;;;;4984376;28;20465;-69
2022/11/27 07:21:31;;;;;;;3.60;2.83;;;;;;;;;;4991859;28;21003;-69
2022/11/27 07:23:58;;;;;;;2.87;2.60;;;;;;;;;;4984010;28;20446;-70
2022/11/27 07:26:27;;;;;;;4.13;2.63;;;;;;;;;;4974441;28;20455;-72
2022/11/27 07:28:54;;;;;;;2.97;2.50;;;;;;;;;;4991287;28;20442;-70
2022/11/27 07:31:22;;;;;;;4.47;3.03;;;;;;;;;;4984048;28;20470;-71
2022/11/27 07:33:52;;;;;;;3.90;3.30;;;;;;;;;;4985536;28;20452;-70
2022/11/27 07:36:20;;;;;;;2.73;2.27;;;;;;;;;;4986980;28;20461;-73
2022/11/27 07:38:47;;;;;;;3.10;2.70;;;;;;;;;;4979387;28;20449;-73
2022/11/27 07:41:15;;;;;;;4.90;3.37;;;;;;;;;;4986245;28;20481;-71
2022/11/27 07:43:43;;;;;;;2.90;2.27;;;;;;;;;;4984620;28;20843;-71
2022/11/27 07:46:11;;;;;;;5.70;2.87;;;;;;;;;;4978902;28;20448;-72
2022/11/27 07:48:39;;;;;;;3.30;2.27;;;;;;;;;;4982693;28;20962;-72
2022/11/27 07:51:08;;;;;;;6.03;2.17;;;;;;;;;;4978713;28;21035;-72
2022/11/27 07:53:37;;;;;;;3.37;2.33;;;;;;;;;;4992116;28;20458;-71
2022/11/27 07:56:04;;;;;;;2.80;2.00;;;;;;;;;;4989809;28;20525;-71
2022/11/27 07:58:31;;;;;;;5.23;2.50;;;;;;;;;;4982795;28;20855;-71
2022/11/27 08:00:58;;;;;;;4.07;2.27;;;;;;;;;;4987715;28;20492;-73
2022/11/27 08:03:25;;;;;;;1.93;1.73;;;;;;;;;;4980293;28;20483;-73
2022/11/27 08:05:53;;;;;;;8.43;2.90;;;;;;;;;;4980262;28;20827;-73
2022/11/27 08:08:21;;;;;;;2.40;2.07;;;;;;;;;;4980190;28;20464;-72
2022/11/27 08:10:48;;;;;;;3.80;2.70;;;;;;;;;;4979549;28;20790;-73
2022/11/27 08:13:15;;;;;;;7.13;4.93;;;;;;;;;;4984667;28;20457;-73
2022/11/27 08:15:43;;;;;;;3.40;2.10;;;;;;;;;;4979351;28;20460;-68
2022/11/27 08:18:10;;;;;;;3.37;2.20;;;;;;;;;;4985035;28;20452;-71
2022/11/27 08:20:37;;;;;;;4.57;2.70;;;;;;;;;;4984477;28;20488;-71
2022/11/27 08:23:04;;;;;;;3.60;3.30;;;;;;;;;;4984686;28;20456;-73
2022/11/27 08:25:32;;;;;;;3.53;3.17;;;;;;;;;;4991155;28;21011;-71
2022/11/27 08:27:59;;;;;;;3.00;2.47;;;;;;;;;;4983899;28;20947;-70
2022/11/27 08:30:27;;;;;;;4.67;3.10;;;;;;;;;;4983647;28;20467;-71
2022/11/27 08:32:54;;;;;;;6.70;3.70;;;;;;;;;;4985753;28;20477;-71
2022/11/27 08:35:21;;;;;;;5.43;3.70;;;;;;;;;;4983281;28;20451;-72
2022/11/27 08:37:48;;;;;;;5.37;3.50;;;;;;;;;;4986500;28;20822;-72
2022/11/27 08:40:15;;;;;;;4.67;4.00;;;;;;;;;;4988708;28;20495;-72
2022/11/27 08:42:44;;;;;;;5.30;3.57;;;;;;;;;;4986847;28;20467;-72
2022/11/27 08:45:11;;;;;;;7.57;5.40;;;;;;;;;;4981526;28;20803;-70
2022/11/27 08:47:38;;;;;;;8.90;5.00;;;;;;;;;;4978473;28;20459;-71
2022/11/27 08:50:06;;;;;;;5.23;3.40;;;;;;;;;;4971604;28;20794;-71
2022/11/27 08:52:33;;;;;;;3.03;2.73;;;;;;;;;;4986653;28;20495;-74
2022/11/27 08:55:00;;;;;;;4.40;3.57;;;;;;;;;;4990369;28;20450;-73
2022/11/27 08:57:27;;;;;;;4.07;2.67;;;;;;;;;;4991083;28;20461;-74
2022/11/27 08:59:55;;;;;;;6.03;3.63;;;2.30;99.90;;;;;;4980837;28;20811;-72
2022/11/27 09:02:22;;;;;;;8.47;3.47;;;4.20;1.00;;;;;;4989029;28;20505;-72
2022/11/27 09:04:49;;;;;;;9.47;3.00;;;4.20;1.00;;;;;;4983628;28;20454;-72
2022/11/27 09:07:16;;;;;;;4.87;3.20;;;4.40;1.00;;;;;;4977686;28;20446;-72
2022/11/27 09:09:43;;;;;;;4.40;3.20;;;4.60;1.00;;;;;;4987494;28;20463;-68
2022/11/27 09:12:10;;;;;;;3.40;3.10;;;4.70;1.00;;;;;;4976051;28;20451;-72
2022/11/27 09:14:37;;;;;;;4.03;3.33;;;4.80;1.00;;;;;;4974578;28;20460;-71
2022/11/27 09:17:05;;;;;;;3.67;2.70;;;4.90;1.00;;;;;;4983184;28;20456;-73
2022/11/27 09:19:32;;;;;;;3.47;3.17;;;;;;;;;;4992722;28;20516;-73
2022/11/27 09:21:59;;;;;;;3.87;2.90;;;;;;;;;;4992856;28;20498;-73
2022/11/27 09:24:26;;;;;;;4.63;3.23;;;;;;;;;;4985219;28;20449;-74
2022/11/27 09:26:53;;;;;;;6.70;3.07;;;;;;;;;;4991138;28;20453;-72
2022/11/27 09:29:20;;;;;;;3.30;2.63;;;;;;;;;;4994957;28;20812;-74
2022/11/27 09:31:48;;;;;;;2.63;2.43;;;;;;;;;;4977872;28;20458;-72
2022/11/27 09:34:17;;;;;;;6.83;6.13;;;;;;;;;;4986449;28;20970;-72
2022/11/27 09:36:44;;;;;;;3.50;3.20;;;;;;;;;;4980062;28;20453;-71
2022/11/27 09:39:12;;;;;;;5.00;3.03;;;;;;;;;;4994664;28;20476;-70
2022/11/27 09:41:43;;;;;;;3.00;2.20;;;;;;;;;;4989047;28;20482;-73
2022/11/27 09:44:34;;;;;;;3.47;2.67;;;;;;;;;;4988087;28;20951;-73
2022/11/27 09:47:12;;;;;;;4.40;3.30;;;5.10;1.00;;;;;;4972411;28;20877;-73
2022/11/27 09:49:44;;;;;;;1.83;1.73;;;5.90;99.90;;;;;;4994517;28;20442;-73
2022/11/27 09:52:17;;;;;;;4.63;2.90;;;5.90;99.90;;;;;;4983452;28;20467;-71
2022/11/27 09:54:53;;;;;;;3.80;3.00;;;5.80;99.90;;;;;;4974979;28;20818;-73
2022/11/27 09:57:25;;;;;;;2.90;2.13;;;5.90;99.90;;;;;;4991724;28;20856;-71
2022/11/27 09:59:54;;;;;;;3.43;2.53;;;6.00;99.90;;;;;;4982246;28;20457;-72
2022/11/27 10:02:27;;;;;;;3.23;2.73;;;5.90;99.90;;;;;;4991806;28;20491;-72
2022/11/27 10:04:56;;;;;;;3.90;2.47;;;6.20;1.00;;;;;;4984020;28;20451;-72
2022/11/27 10:07:33;;;;;;;2.83;2.60;;;6.30;1.00;;;;;;4985330;28;20465;-72
2022/11/27 10:10:10;;;;;;;3.30;2.50;;;6.10;1.00;;;;;;4982868;28;20450;-73
2022/11/27 10:12:48;;;;;;;2.27;2.03;;;6.10;1.00;;;;;;4986326;28;20936;-74
2022/11/27 10:15:19;;;;;;;2.73;2.10;;;6.10;99.90;;;;;;4989603;28;20955;-73
2022/11/27 10:17:52;;;;;;;4.10;3.50;;;6.20;99.90;;;;;;4992693;28;20474;-73
2022/11/27 10:20:28;;;;;;;6.13;2.80;;;6.10;99.90;;;;;;4985795;28;20456;-71
2022/11/27 10:23:00;;;;;;;5.30;2.80;;;6.10;99.90;;;;;;4993483;28;20444;-71
2022/11/27 10:25:34;;;;;;;3.37;2.77;;;6.20;99.90;;;;;;4980377;28;20791;-72
2022/11/27 10:28:12;;;;;;;5.33;3.90;;;6.20;70.90;;;;;;4986570;28;20484;-71
2022/11/27 10:30:45;;;;;;;7.23;3.37;;;6.20;99.90;;;;;;4982756;28;21023;-71
2022/11/27 10:33:19;;;;;;;4.57;3.30;;;6.20;13.70;;;;;;4981882;28;20457;-72
2022/11/27 10:35:49;;;;;;;5.30;2.70;;;6.30;24.60;;;;;;4985135;28;20449;-74
2022/11/27 10:38:20;;;;;;;3.30;2.40;;;6.20;1.00;;;;;;4976141;28;20959;-71
2022/11/27 10:40:53;;;;;;;3.47;2.93;;;6.30;54.10;;;;;;4992760;28;20498;-74
2022/11/27 10:43:22;;;;;;;3.57;2.40;;;6.30;1.00;;;;;;4986765;28;20460;-71
2022/11/27 10:45:52;;;;;;;4.67;2.90;;;6.40;1.00;;;;;;4986657;28;20462;-73
2022/11/27 10:48:19;;;;;;;6.40;4.10;;;6.50;1.00;;;;;;4981844;28;20811;-71
2022/11/27 10:50:47;;;;;;;6.17;4.67;;;6.50;99.90;;;;;;4983125;28;20451;-72
2022/11/27 10:53:19;;;;;;;5.07;4.03;;;6.50;99.90;;;;;;4986087;28;20458;-73
2022/11/27 10:56:01;;;;;;;4.70;4.20;;;6.60;1.50;;;;;;4990587;28;20815;-73
2022/11/27 10:58:33;;;;;;;6.57;4.20;;;6.60;1.00;;;;;;4976801;28;20456;-72
2022/11/27 11:01:01;;;;;;;13.07;4.37;;;6.60;1.00;;;;;;4980491;28;20495;-71
2022/11/27 11:03:28;;;;;;;4.80;3.90;;;6.70;1.00;;;;;;4992747;28;20482;-72
2022/11/27 11:05:59;;;;;;;5.30;3.20;;;6.90;1.00;;;;;;4987029;28;20458;-72
2022/11/27 11:08:28;;;;;;;4.13;3.57;;;7.00;77.00;;;;;;4979211;28;20584;-72
2022/11/27 11:10:58;;;;;;;3.93;2.67;;;7.20;1.00;;;;;;4982751;28;20578;-72
2022/11/27 11:13:27;;;;;;;4.30;3.90;;;7.30;1.00;;;;;;4991601;28;20460;-72
2022/11/27 11:15:59;;;;;;;3.27;2.57;;;7.50;1.00;;;;;;4980495;28;20461;-72
2022/11/27 11:18:28;;;;;;;3.37;2.70;;;7.60;1.00;;;;;;4984613;28;20971;-72
2022/11/27 11:20:58;;;;;;;2.40;2.00;;;;;;;;;;4988844;28;20489;-72
2022/11/27 11:23:29;;;;;;;3.23;2.60;;;;;;;;;;4987595;28;20817;-72
2022/11/27 11:25:57;;;;;;;4.17;2.70;;;;;;;;;;4982631;28;20450;-73
2022/11/27 11:28:25;;;;;;;2.47;2.27;;;;;;;;;;4992140;28;20932;-71
2022/11/27 11:30:54;;;;;;;2.40;2.20;;;;;;;;;;4990143;28;20458;-71
2022/11/27 11:33:21;;;;;;;4.70;2.97;;;;;;;;;;4988529;28;20462;-74
2022/11/27 11:35:52;;;;;;;3.67;2.23;;;;;;;;;;4983502;28;20451;-71
2022/11/27 11:38:24;;;;;;;3.23;2.43;;;;;;;;;;4977626;28;20450;-72
2022/11/27 11:40:58;;;;;;;2.63;2.00;;;;;;;;;;4985504;28;20464;-72
2022/11/27 11:43:26;;;;;;;1.90;1.80;;;;;;;;;;4976097;28;20451;-71
2022/11/27 11:45:55;;;;;;;4.70;1.60;;;;;;;;;;4985024;28;20462;-71
2022/11/27 11:48:23;;;;;;;2.80;2.10;;;;;;;;;;4991270;28;20847;-73
2022/11/27 11:50:53;;;;;;;3.80;2.10;;;;;;;;;;4987104;28;21037;-71
2022/11/27 11:53:25;;;;;;;2.90;1.80;;;;;;;;;;4980840;28;20449;-72
2022/11/27 11:55:59;;;;;;;2.50;2.03;;;;;;;;;;4987786;28;20882;-71
2022/11/27 11:58:33;;;;;;;2.80;2.47;;;;;;;;;;4989346;28;20452;-72
2022/11/27 12:01:03;;;;;;;3.70;2.23;;;;;;;;;;4990839;28;20467;-69
2022/11/27 12:03:34;;;;;;;3.80;2.30;;;;;;;;;;4992550;28;20500;-69
2022/11/27 12:06:06;;;;;;;2.90;2.43;;;;;;;;;;4990909;28;20537;-70
2022/11/27 12:08:41;;;;;;;3.60;3.07;;;;;;;;;;4996009;28;20476;-71
2022/11/27 12:11:11;;;;;;;5.87;3.00;;;;;;;;;;4988649;28;20992;-72
2022/11/27 12:13:45;;;;;;;7.80;3.50;;;;;;;;;;4995254;28;20468;-71
2022/11/27 12:16:16;;;;;;;3.20;2.30;;;;;;;;;;4986265;28;20454;-72
2022/11/27 12:18:48;;;;;;;3.37;2.50;;;;;;;;;;4995980;28;20501;-68
2022/11/27 12:21:16;;;;;;;3.37;2.00;;;;;;;;;;4995341;28;20476;-71
2022/11/27 12:23:50;;;;;;;5.27;2.43;;;;;;;;;;4988282;28;20554;-71
2022/11/27 12:26:21;;;;;;;2.03;1.60;;;;;;;;;;4984342;28;20454;-71
2022/11/27 12:28:57;;;;;;;3.10;1.73;;;;;;;;;;4986712;28;20455;-73
2022/11/27 12:31:33;;;;;;;3.50;2.60;;;;;;;;;;4984017;28;20465;-71
2022/11/27 12:34:03;;;;;;;1.97;1.70;;;;;;;;;;4984324;28;20450;-73
2022/11/27 12:36:39;;;;;;;3.00;2.00;;;;;;;;;;4988093;28;20453;-72
2022/11/27 12:39:21;;;;;;;3.37;1.70;;;;;;;;;;4976015;28;20620;-70
2022/11/27 12:42:00;;;;;;;1.70;1.30;;;;;;;;;;4986583;28;21032;-75
2022/11/27 12:44:32;;;;;;;5.20;1.57;;;;;;;;;;4979894;28;20457;-73
2022/11/27 12:47:01;;;;;;;2.73;1.67;;;;;;;;;;4985932;28;20846;-69
2022/11/27 12:49:30;;;;;;;4.27;1.83;;;;;;;;;;4972092;28;20794;-69
2022/11/27 12:52:02;;;;;;;2.57;1.90;;;;;;;;;;4975670;28;20771;-70
2022/11/27 12:54:32;;;;;;;3.00;1.50;;;;;;;;;;4986156;28;20450;-70
2022/11/27 12:57:01;;;;;;;2.43;1.53;;;;;;;;;;4984546;28;20449;-71
2022/11/27 12:59:32;;;;;;;3.50;1.90;;;;;;;;;;4982124;28;20982;-72
2022/11/27 13:02:03;;;;;;;2.10;1.43;;;;;;;;;;4987714;28;20644;-72
2022/11/27 13:04:33;;;;;;;2.13;1.43;;;;;;;;;;4986271;28;21012;-72
2022/11/27 13:07:03;;;;;;;2.27;1.67;;;;;;;;;;4986081;28;21256;-72
2022/11/27 13:09:38;;;;;;;2.90;1.80;;;;;;;;;;4982563;28;20465;-71
2022/11/27 13:12:06;;;;;;;3.07;1.77;;;;;;;;;;4980676;28;21285;-72
2022/11/27 13:14:35;;;;;;;3.33;2.90;;;;;;;;;;4979380;28;20454;-72
2022/11/27 13:17:04;;;;;;;2.83;2.20;;;;;;;;;;4979935;28;20452;-71
2022/11/27 13:19:32;;;;;;;3.73;1.97;;;;;;;;;;4977202;28;20568;-71
2022/11/27 13:22:03;;;;;;;3.40;1.73;;;7.80;99.90;;;;;;4983655;28;20491;-72
2022/11/27 13:24:30;;;;;;;4.57;1.87;;;9.00;99.90;;;;;;4986116;28;20447;-72
2022/11/27 13:27:05;;;;;;;2.03;1.43;;;8.90;99.90;;;;;;4976213;28;20450;-71
2022/11/27 13:29:39;;;;;;;3.20;1.80;;;9.00;99.90;;;;;;4980537;28;20805;-72
2022/11/27 13:32:08;;;;;;;2.33;1.53;;;9.10;99.90;;;;;;4978751;28;20492;-72
2022/11/27 13:34:44;;;;;;;3.00;2.00;;;9.20;99.90;;;;;;4981877;28;20942;-71
2022/11/27 13:37:28;;;;;;;7.10;2.47;;;9.10;99.90;;;;;;4974689;28;20452;-70
2022/11/27 13:40:02;;;;;;;3.73;2.30;;;9.30;99.90;;;;;;4974996;28;20445;-72
2022/11/27 13:42:33;;;;;;;3.57;1.97;;;9.30;99.90;;;;;;4974225;28;21043;-71
2022/11/27 13:45:04;;;;;;;4.17;2.23;;;9.10;99.90;;;;;;4968783;28;20451;-71
2022/11/27 13:47:38;;;;;;;2.57;1.83;;;9.10;99.90;;;;;;4982003;28;20980;-71
2022/11/27 13:50:08;;;;;;;4.13;2.57;;;9.10;99.90;;;;;;4980710;28;21337;-73
2022/11/27 13:52:36;;;;;;;3.27;2.07;;;9.10;99.90;;;;;;4981450;28;20466;-72
2022/11/27 13:55:06;;;;;;;3.43;2.33;;;9.10;99.90;;;;;;4974668;28;20961;-72
2022/11/27 13:57:34;;;;;;;1.90;1.60;;;9.20;99.90;;;;;;4985987;28;20953;-70
2022/11/27 14:00:04;;;;;;;2.30;1.83;;;9.20;99.90;;;;;;4977868;28;20513;-70
2022/11/27 14:02:42;;;;;;;7.70;2.97;;;9.00;99.90;;;;;;4988914;28;20894;-72
2022/11/27 14:05:10;;;;;;;4.47;4.00;;;9.10;99.90;;;;;;4987492;28;20458;-71
2022/11/27 14:07:40;;;;;;;3.60;2.00;;;9.10;99.90;;;;;;4981179;28;20484;-71
2022/11/27 14:10:10;;;;;;;2.13;1.83;;;9.10;99.90;;;;;;4990745;28;20486;-71
2022/11/27 14:12:39;;;;;;;9.07;1.93;;;9.10;99.90;;;;;;4978840;28;20471;-71
2022/11/27 14:15:09;;;;;;;2.70;1.80;;;9.20;99.90;;;;;;4984296;28;20459;-72